createdAt,value
2019-06-01T00:02:19.815Z,19.72
2019-06-01T00:04:49.223Z,19.65
2019-06-01T00:07:17.303Z,19.35
2019-06-01T00:09:45.223Z,19.52
2019-06-01T00:12:13.050Z,19.60
2019-06-01T00:14:41.695Z,19.71
2019-06-01T00:17:09.604Z,19.64
2019-06-01T00:19:37.366Z,19.58
2019-06-01T00:22:05.158Z,19.20
2019-06-01T00:24:32.899Z,19.25
2019-06-01T00:27:00.664Z,19.22
2019-06-01T00:29:31.320Z,19.27
2019-06-01T00:31:59.102Z,19.45
2019-06-01T00:34:26.871Z,19.31
2019-06-01T00:36:56.499Z,19.45
2019-06-01T00:39:24.260Z,19.35
2019-06-01T00:41:52.497Z,19.00
2019-06-01T00:44:20.505Z,19.08
2019-06-01T00:46:56.238Z,18.93
2019-06-01T00:49:24.080Z,18.88
2019-06-01T00:51:53.782Z,18.76
2019-06-01T00:54:21.690Z,18.85
2019-06-01T00:56:49.744Z,18.69
2019-06-01T00:59:17.563Z,18.82
2019-06-01T01:01:45.876Z,18.98
2019-06-01T01:04:13.715Z,18.78
2019-06-01T01:06:41.495Z,18.83
2019-06-01T01:09:09.261Z,18.67
2019-06-01T01:11:37.067Z,18.80
2019-06-01T01:14:06.687Z,18.86
2019-06-01T01:16:34.540Z,18.62
2019-06-01T01:19:02.331Z,18.81
2019-06-01T01:21:31.786Z,18.91
2019-06-01T01:23:59.566Z,18.86
2019-06-01T01:26:27.336Z,18.99
2019-06-01T01:28:55.101Z,18.98
2019-06-01T01:31:22.854Z,19.09
2019-06-01T01:33:51.403Z,19.10
2019-06-01T01:36:19.300Z,18.97
2019-06-01T01:38:48.254Z,19.03
2019-06-01T01:41:16.241Z,18.92
2019-06-01T01:43:45.976Z,18.58
2019-06-01T01:46:13.677Z,18.46
2019-06-01T01:48:41.421Z,18.42
2019-06-01T01:51:09.259Z,18.26
2019-06-01T01:53:38.197Z,18.19
2019-06-01T01:56:05.971Z,18.04
2019-06-01T01:58:33.702Z,18.06
2019-06-01T02:01:20.861Z,18.06
2019-06-01T02:03:32.406Z,17.86
2019-06-01T02:06:00.188Z,18.06
2019-06-01T02:08:29.723Z,18.02
2019-06-01T02:10:57.567Z,17.75
2019-06-01T02:13:25.401Z,17.61
2019-06-01T02:15:54.116Z,17.62
2019-06-01T02:18:22.002Z,17.54
2019-06-01T02:20:49.794Z,17.54
2019-06-01T02:23:17.521Z,17.75
2019-06-01T02:25:45.261Z,17.62
2019-06-01T02:28:13.021Z,17.54
2019-06-01T02:30:40.773Z,17.35
2019-06-01T02:33:08.485Z,17.16
2019-06-01T02:35:36.258Z,17.24
2019-06-01T02:38:05.760Z,17.41
2019-06-01T02:40:35.590Z,17.49
2019-06-01T02:43:06.269Z,17.40
2019-06-01T02:45:33.432Z,17.41
2019-06-01T02:48:01.874Z,17.41
2019-06-01T02:50:31.017Z,17.47
2019-06-01T02:52:59.405Z,17.61
2019-06-01T02:55:27.308Z,17.61
2019-06-01T02:57:55.985Z,17.42
2019-06-01T03:01:21.458Z,17.51
2019-06-01T03:03:50.891Z,17.41
2019-06-01T03:06:19.664Z,17.55
2019-06-01T03:08:50.163Z,17.54
2019-06-01T03:11:22.064Z,17.68
2019-06-01T03:13:53.787Z,17.70
2019-06-01T03:16:24.014Z,17.74
2019-06-01T03:18:53.476Z,17.63
2019-06-01T03:21:22.391Z,17.45
2019-06-01T03:23:53.290Z,17.20
2019-06-01T03:26:23.932Z,17.06
2019-06-01T03:28:52.062Z,17.19
2019-06-01T03:31:19.912Z,17.09
2019-06-01T03:33:48.947Z,16.87
2019-06-01T03:36:17.339Z,16.78
2019-06-01T03:38:45.138Z,16.81
2019-06-01T03:41:12.869Z,16.95
2019-06-01T03:43:40.618Z,17.13
2019-06-01T03:46:08.747Z,16.97
2019-06-01T03:48:36.729Z,16.97
2019-06-01T03:51:05.596Z,17.07
2019-06-01T03:53:33.535Z,16.87
2019-06-01T03:56:02.006Z,17.02
2019-06-01T03:58:31.042Z,17.00
2019-06-01T04:00:58.872Z,16.62
2019-06-01T04:03:26.671Z,16.57
2019-06-01T04:05:54.471Z,16.44
2019-06-01T04:08:22.223Z,16.56
2019-06-01T04:10:51.162Z,16.53
2019-06-01T04:13:18.889Z,16.63
2019-06-01T04:15:46.920Z,16.64
2019-06-01T04:18:14.682Z,16.68
2019-06-01T04:20:42.445Z,16.94
2019-06-01T04:23:10.274Z,17.00
2019-06-01T04:25:38.559Z,17.02
2019-06-01T04:28:12.338Z,16.99
2019-06-01T04:30:40.575Z,17.23
2019-06-01T04:33:09.004Z,17.09
2019-06-01T04:35:36.908Z,17.30
2019-06-01T04:38:05.066Z,17.20
2019-06-01T04:40:33.029Z,17.48
2019-06-01T04:43:00.822Z,17.82
2019-06-01T04:45:28.606Z,18.02
2019-06-01T04:47:56.354Z,18.14
2019-06-01T04:50:24.102Z,18.04
2019-06-01T04:52:51.876Z,17.88
2019-06-01T04:55:19.640Z,18.00
2019-06-01T04:57:47.384Z,18.01
2019-06-01T05:00:25.692Z,18.23
2019-06-01T05:02:45.970Z,18.09
2019-06-01T05:05:15.179Z,18.00
2019-06-01T05:07:43.417Z,18.22
2019-06-01T05:10:11.657Z,18.23
2019-06-01T05:12:39.780Z,18.42
2019-06-01T05:15:09.778Z,18.67
2019-06-01T05:17:37.897Z,18.61
2019-06-01T05:20:08.173Z,18.16
2019-06-01T05:22:36.134Z,18.67
2019-06-01T05:25:04.145Z,18.85
2019-06-01T05:27:31.908Z,18.73
2019-06-01T05:29:59.664Z,18.71
2019-06-01T05:32:27.501Z,19.17
2019-06-01T05:34:55.253Z,19.50
2019-06-01T05:37:23.007Z,19.79
2019-06-01T05:39:50.764Z,19.94
2019-06-01T05:42:19.043Z,19.67
2019-06-01T05:44:46.925Z,19.71
2019-06-01T05:47:14.671Z,18.99
2019-06-01T05:49:42.424Z,19.49
2019-06-01T05:52:10.394Z,19.96
2019-06-01T05:54:38.279Z,20.07
2019-06-01T05:57:06.081Z,20.16
2019-06-01T05:59:33.952Z,20.01
2019-06-01T06:02:01.699Z,20.27
2019-06-01T06:04:29.467Z,20.86
2019-06-01T06:06:57.296Z,20.31
2019-06-01T06:09:25.061Z,20.01
2019-06-01T06:11:53.954Z,20.41
2019-06-01T06:14:22.619Z,20.73
2019-06-01T06:16:50.570Z,21.07
2019-06-01T06:19:21.113Z,20.90
2019-06-01T06:21:47.997Z,21.61
2019-06-01T06:24:16.381Z,21.46
2019-06-01T06:26:44.267Z,21.67
2019-06-01T06:29:12.751Z,22.31
2019-06-01T06:31:40.778Z,22.37
2019-06-01T06:34:08.507Z,22.23
2019-06-01T06:36:36.264Z,22.11
2019-06-01T06:39:06.404Z,22.11
2019-06-01T06:41:34.338Z,22.20
2019-06-01T06:44:02.096Z,21.74
2019-06-01T06:46:29.876Z,21.92
2019-06-01T06:48:57.673Z,22.60
2019-06-01T06:51:25.601Z,22.90
2019-06-01T06:53:53.440Z,22.76
2019-06-01T06:56:22.019Z,23.14
2019-06-01T06:58:49.973Z,23.04
2019-06-01T07:01:18.695Z,23.68
2019-06-01T07:03:46.556Z,23.15
2019-06-01T07:06:14.383Z,23.55
2019-06-01T07:08:42.275Z,23.82
2019-06-01T07:11:12.063Z,24.08
2019-06-01T07:13:39.717Z,23.22
2019-06-01T07:16:07.525Z,24.07
2019-06-01T07:18:35.259Z,24.21
2019-06-01T07:21:03.079Z,24.87
2019-06-01T07:23:32.005Z,23.65
2019-06-01T07:26:00.015Z,24.54
2019-06-01T07:28:29.712Z,24.79
2019-06-01T07:30:57.593Z,24.93
2019-06-01T07:33:26.451Z,24.96
2019-06-01T07:35:54.471Z,23.98
2019-06-01T07:38:22.306Z,24.01
2019-06-01T07:40:50.215Z,24.68
2019-06-01T07:43:18.029Z,25.01
2019-06-01T07:45:45.767Z,25.10
2019-06-01T07:48:13.552Z,24.59
2019-06-01T07:50:41.354Z,26.04
2019-06-01T07:53:09.113Z,26.56
2019-06-01T07:55:36.831Z,26.67
2019-06-01T07:58:04.707Z,25.97
2019-06-01T08:00:33.241Z,26.32
2019-06-01T08:03:01.118Z,25.99
2019-06-01T08:05:30.061Z,25.61
2019-06-01T08:07:58.073Z,26.58
2019-06-01T08:10:26.491Z,27.14
2019-06-01T08:13:14.988Z,27.28
2019-06-01T08:15:43.240Z,27.35
2019-06-01T08:18:11.040Z,27.02
2019-06-01T08:20:38.908Z,26.89
2019-06-01T08:23:06.763Z,26.98
2019-06-01T08:25:34.787Z,26.70
2019-06-01T08:28:03.039Z,26.48
2019-06-01T08:30:30.986Z,26.57
2019-06-01T08:32:58.797Z,26.84
2019-06-01T08:35:27.618Z,27.37
2019-06-01T08:37:55.424Z,27.29
2019-06-01T08:40:23.379Z,27.91
2019-06-01T08:42:53.095Z,27.26
2019-06-01T08:45:21.092Z,27.52
2019-06-01T08:47:48.879Z,27.48
2019-06-01T08:50:16.741Z,27.46
2019-06-01T08:52:44.622Z,27.83
2019-06-01T08:55:13.971Z,27.73
2019-06-01T08:57:41.714Z,28.07
2019-06-01T09:00:10.865Z,28.15
2019-06-01T09:02:38.663Z,28.04
2019-06-01T09:05:23.084Z,28.15
2019-06-01T09:07:37.428Z,27.67
2019-06-01T09:10:07.097Z,28.77
2019-06-01T09:12:35.716Z,28.82
2019-06-01T09:15:05.016Z,28.44
2019-06-01T09:17:33.476Z,29.00
2019-06-01T09:20:01.490Z,30.08
2019-06-01T09:22:29.479Z,30.50
2019-06-01T09:24:57.461Z,30.12
2019-06-01T09:27:28.147Z,30.05
2019-06-01T09:29:55.938Z,29.73
2019-06-01T09:32:23.808Z,30.11
2019-06-01T09:34:54.749Z,30.38
2019-06-01T09:37:22.564Z,29.75
2019-06-01T09:39:50.545Z,30.78
2019-06-01T09:42:18.336Z,31.32
2019-06-01T09:44:47.183Z,30.92
2019-06-01T09:47:16.148Z,30.07
2019-06-01T09:49:43.958Z,29.83
2019-06-01T09:52:12.667Z,29.88
2019-06-01T09:54:41.144Z,29.65
2019-06-01T09:57:08.964Z,29.46
2019-06-01T09:59:37.930Z,29.30
2019-06-01T10:02:06.006Z,29.52
2019-06-01T10:04:34.419Z,30.51
2019-06-01T10:07:02.307Z,31.01
2019-06-01T10:09:30.062Z,30.61
2019-06-01T10:11:57.987Z,31.40
2019-06-01T10:14:25.770Z,30.10
2019-06-01T10:16:53.541Z,29.24
2019-06-01T10:19:21.335Z,30.57
2019-06-01T10:21:49.097Z,30.29
2019-06-01T10:24:16.837Z,29.35
2019-06-01T10:26:44.690Z,29.45
2019-06-01T10:29:12.425Z,29.25
2019-06-01T10:31:41.638Z,29.28
2019-06-01T10:34:12.429Z,30.22
2019-06-01T10:36:40.346Z,31.01
2019-06-01T10:39:08.214Z,29.69
2019-06-01T10:41:37.497Z,30.47
2019-06-01T10:44:05.431Z,30.95
2019-06-01T10:46:33.935Z,30.94
2019-06-01T10:49:03.862Z,30.27
2019-06-01T10:51:32.087Z,29.63
2019-06-01T10:54:00.196Z,29.69
2019-06-01T10:56:30.452Z,30.21
2019-06-01T10:59:00.538Z,29.84
2019-06-01T11:01:27.933Z,29.71
2019-06-01T11:03:55.695Z,28.89
2019-06-01T11:06:36.654Z,29.36
2019-06-01T11:08:53.251Z,28.61
2019-06-01T11:11:22.121Z,28.80
2019-06-01T11:13:49.876Z,29.63
2019-06-01T11:16:17.905Z,29.45
2019-06-01T11:18:45.834Z,28.85
2019-06-01T11:21:15.243Z,29.05
2019-06-01T11:23:46.302Z,28.33
2019-06-01T11:26:12.819Z,28.51
2019-06-01T11:28:42.154Z,28.73
2019-06-01T11:31:11.809Z,28.32
2019-06-01T11:33:40.173Z,28.43
2019-06-01T11:36:10.199Z,28.75
2019-06-01T11:38:38.508Z,28.57
2019-06-01T11:41:06.828Z,28.23
2019-06-01T11:43:34.706Z,28.52
2019-06-01T11:46:02.473Z,28.88
2019-06-01T11:48:30.393Z,28.92
2019-06-01T11:50:59.325Z,28.72
2019-06-01T11:53:27.123Z,28.89
2019-06-01T11:55:58.840Z,28.43
2019-06-01T11:58:26.645Z,27.96
2019-06-01T12:00:54.467Z,27.84
2019-06-01T12:03:22.252Z,27.50
2019-06-01T12:05:50.011Z,27.53
2019-06-01T12:08:17.786Z,28.15
2019-06-01T12:10:45.592Z,27.96
2019-06-01T12:13:13.416Z,28.20
2019-06-01T12:15:42.275Z,28.39
2019-06-01T12:18:10.554Z,28.28
2019-06-01T12:20:38.648Z,28.31
2019-06-01T12:23:06.634Z,28.02
2019-06-01T12:25:34.438Z,27.84
2019-06-01T12:28:02.310Z,28.00
2019-06-01T12:30:30.090Z,27.91
2019-06-01T12:32:57.928Z,27.93
2019-06-01T12:35:25.751Z,27.97
2019-06-01T12:38:05.318Z,28.14
2019-06-01T12:40:24.127Z,28.31
2019-06-01T12:42:52.114Z,28.17
2019-06-01T12:45:22.812Z,28.32
2019-06-01T12:47:55.256Z,28.38
2019-06-01T12:50:25.805Z,28.41
2019-06-01T12:52:53.653Z,28.53
2019-06-01T12:55:23.247Z,28.19
2019-06-01T12:57:51.386Z,27.73
2019-06-01T13:00:19.635Z,27.70
2019-06-01T13:03:01.957Z,27.49
2019-06-01T13:05:19.181Z,27.75
2019-06-01T13:07:56.340Z,27.86
2019-06-01T13:10:17.035Z,27.92
2019-06-01T13:12:45.158Z,28.14
2019-06-01T13:15:15.510Z,28.20
2019-06-01T13:17:43.287Z,27.68
2019-06-01T13:20:11.385Z,27.50
2019-06-01T13:22:39.193Z,27.39
2019-06-01T13:25:07.241Z,27.53
2019-06-01T13:27:35.017Z,27.41
2019-06-01T13:30:04.270Z,27.26
2019-06-01T13:32:32.103Z,27.28
2019-06-01T13:34:59.903Z,27.33
2019-06-01T13:37:27.667Z,27.40
2019-06-01T13:39:58.117Z,27.68
2019-06-01T13:42:25.072Z,27.91
2019-06-01T13:44:53.652Z,27.47
2019-06-01T13:47:22.171Z,27.39
2019-06-01T13:49:50.169Z,27.33
2019-06-01T13:52:19.184Z,27.47
2019-06-01T13:54:46.939Z,27.70
2019-06-01T13:57:16.524Z,28.01
2019-06-01T14:00:01.905Z,28.05
2019-06-01T14:02:30.323Z,27.74
2019-06-01T14:05:02.784Z,27.72
2019-06-01T14:07:32.657Z,27.62
2019-06-01T14:10:04.930Z,27.62
2019-06-01T14:12:33.900Z,27.60
2019-06-01T14:15:02.527Z,27.47
2019-06-01T14:17:30.364Z,27.65
2019-06-01T14:20:05.953Z,28.15
2019-06-01T14:22:34.092Z,28.33
2019-06-01T14:25:12.362Z,28.39
2019-06-01T14:27:33.162Z,28.07
2019-06-01T14:30:01.004Z,28.03
2019-06-01T14:32:32.113Z,28.01
2019-06-01T14:35:00.329Z,28.04
2019-06-01T14:37:30.624Z,28.28
2019-06-01T14:39:58.411Z,28.08
2019-06-01T14:42:26.309Z,28.20
2019-06-01T14:44:54.069Z,28.40
2019-06-01T14:47:21.910Z,28.44
2019-06-01T14:49:49.748Z,28.44
2019-06-01T14:52:19.315Z,28.37
2019-06-01T14:54:56.472Z,28.32
2019-06-01T14:57:26.734Z,28.47
2019-06-01T14:59:56.049Z,28.13
2019-06-01T15:02:24.476Z,28.04
2019-06-01T15:04:56.946Z,27.62
2019-06-01T15:07:26.728Z,27.97
2019-06-01T15:09:54.957Z,28.29
2019-06-01T15:12:26.980Z,28.23
2019-06-01T15:14:55.524Z,28.11
2019-06-01T15:17:23.473Z,28.14
2019-06-01T15:19:51.890Z,28.38
2019-06-01T15:22:19.845Z,28.46
2019-06-01T15:24:47.608Z,28.36
2019-06-01T15:27:16.577Z,27.93
2019-06-01T15:29:44.349Z,28.21
2019-06-01T15:32:12.086Z,28.44
2019-06-01T15:34:39.845Z,28.59
2019-06-01T15:37:07.616Z,28.57
2019-06-01T15:39:35.511Z,28.44
2019-06-01T15:42:03.615Z,28.17
2019-06-01T15:44:31.472Z,28.51
2019-06-01T15:46:59.687Z,28.61
2019-06-01T15:49:27.697Z,28.41
2019-06-01T15:51:55.811Z,28.49
2019-06-01T15:54:24.021Z,28.20
2019-06-01T15:56:52.217Z,28.43
2019-06-01T15:59:30.789Z,28.48
2019-06-01T16:01:59.306Z,28.34
2019-06-01T16:04:27.267Z,28.56
2019-06-01T16:06:55.068Z,28.42
2019-06-01T16:09:22.828Z,28.24
2019-06-01T16:11:50.764Z,28.52
2019-06-01T16:14:18.531Z,28.56
2019-06-01T16:16:46.325Z,28.54
2019-06-01T16:19:14.101Z,28.55
2019-06-01T16:21:41.876Z,28.47
2019-06-01T16:24:09.722Z,28.67
2019-06-01T16:26:37.615Z,28.71
2019-06-01T16:29:05.520Z,28.49
2019-06-01T16:31:33.299Z,28.33
2019-06-01T16:34:03.289Z,28.03
2019-06-01T16:36:34.760Z,27.76
2019-06-01T16:39:08.080Z,27.65
2019-06-01T16:41:40.008Z,28.01
2019-06-01T16:44:11.394Z,28.20
2019-06-01T16:46:40.906Z,28.37
2019-06-01T16:49:14.330Z,28.35
2019-06-01T16:51:56.694Z,27.81
2019-06-01T16:54:25.119Z,27.89
2019-06-01T16:56:53.700Z,27.71
2019-06-01T16:59:21.730Z,27.55
2019-06-01T17:01:49.635Z,27.73
2019-06-01T17:04:18.549Z,27.27
2019-06-01T17:06:47.279Z,27.20
2019-06-01T17:09:19.725Z,27.31
2019-06-01T17:11:52.471Z,27.48
2019-06-01T17:14:23.863Z,27.33
2019-06-01T17:16:57.217Z,27.44
2019-06-01T17:19:30.948Z,27.70
2019-06-01T17:22:01.562Z,27.72
2019-06-01T17:24:31.977Z,27.74
2019-06-01T17:27:04.389Z,27.70
2019-06-01T17:29:36.250Z,27.72
2019-06-01T17:32:22.739Z,27.83
2019-06-01T17:34:39.651Z,27.65
2019-06-01T17:37:07.521Z,27.80
2019-06-01T17:39:43.274Z,27.75
2019-06-01T17:42:15.065Z,27.80
2019-06-01T17:44:47.631Z,27.96
2019-06-01T17:47:20.842Z,28.18
2019-06-01T17:49:57.249Z,28.12
2019-06-01T17:52:28.374Z,27.99
2019-06-01T17:55:07.298Z,27.68
2019-06-01T17:57:46.488Z,27.43
2019-06-01T18:00:17.411Z,27.52
2019-06-01T18:02:45.677Z,27.51
2019-06-01T18:05:15.797Z,27.54
2019-06-01T18:07:46.294Z,27.54
2019-06-01T18:10:16.990Z,27.45
2019-06-01T18:12:47.013Z,27.40
2019-06-01T18:15:17.700Z,27.45
2019-06-01T18:17:48.214Z,27.23
2019-06-01T18:20:16.974Z,27.15
2019-06-01T18:22:44.844Z,27.39
2019-06-01T18:25:21.679Z,27.28
2019-06-01T18:27:51.893Z,27.15
2019-06-01T18:30:24.258Z,27.18
2019-06-01T18:32:53.796Z,27.18
2019-06-01T18:35:23.585Z,27.50
2019-06-01T18:37:51.499Z,27.43
2019-06-01T18:40:23.492Z,26.99
2019-06-01T18:43:01.433Z,26.95
2019-06-01T18:45:31.062Z,26.88
2019-06-01T18:47:58.951Z,26.78
2019-06-01T18:50:26.762Z,26.86
2019-06-01T18:52:54.584Z,26.96
2019-06-01T18:55:22.340Z,27.07
2019-06-01T18:57:54.123Z,26.91
2019-06-01T19:00:21.946Z,26.84
2019-06-01T19:02:51.075Z,26.81
2019-06-01T19:05:19.018Z,26.74
2019-06-01T19:07:46.959Z,26.76
2019-06-01T19:10:16.398Z,26.77
2019-06-01T19:12:44.326Z,26.78
2019-06-01T19:15:27.829Z,26.81
2019-06-01T19:17:43.927Z,26.79
2019-06-01T19:20:15.268Z,26.72
2019-06-01T19:22:43.474Z,26.73
2019-06-01T19:25:13.215Z,26.85
2019-06-01T19:27:41.234Z,26.81
2019-06-01T19:30:10.841Z,26.80
2019-06-01T19:32:41.945Z,26.62
2019-06-01T19:35:11.544Z,26.58
2019-06-01T19:37:41.039Z,26.56
2019-06-01T19:40:11.379Z,26.68
2019-06-01T19:42:39.391Z,26.78
2019-06-01T19:45:18.434Z,26.77
2019-06-01T19:47:41.072Z,26.73
2019-06-01T19:50:10.352Z,26.61
2019-06-01T19:52:38.516Z,26.65
2019-06-01T19:55:06.768Z,26.68
2019-06-01T19:57:34.887Z,26.65
2019-06-01T20:00:02.950Z,26.63
2019-06-01T20:02:34.101Z,26.36
2019-06-01T20:05:00.649Z,26.11
2019-06-01T20:07:28.451Z,26.08
2019-06-01T20:09:56.257Z,26.14
2019-06-01T20:12:24.072Z,26.19
2019-06-01T20:14:51.836Z,26.09
2019-06-01T20:17:23.094Z,26.19
2019-06-01T20:19:49.306Z,26.18
2019-06-01T20:22:17.141Z,26.12
2019-06-01T20:24:44.946Z,26.09
2019-06-01T20:27:13.422Z,26.04
2019-06-01T20:29:41.582Z,26.05
2019-06-01T20:32:09.440Z,26.00
2019-06-01T20:34:37.266Z,26.01
2019-06-01T20:37:05.160Z,25.99
2019-06-01T20:39:32.905Z,25.94
2019-06-01T20:42:19.965Z,25.91
2019-06-01T20:44:30.862Z,25.79
2019-06-01T20:46:58.680Z,25.68
2019-06-01T20:49:26.458Z,25.65
2019-06-01T20:51:54.197Z,25.54
2019-06-01T20:54:23.207Z,25.48
2019-06-01T20:56:51.184Z,25.56
2019-06-01T20:59:21.116Z,25.33
2019-06-01T21:01:49.124Z,25.27
2019-06-01T21:04:18.081Z,25.29
2019-06-01T21:06:45.941Z,25.16
2019-06-01T21:09:13.859Z,25.14
2019-06-01T21:11:41.933Z,24.99
2019-06-01T21:14:09.744Z,25.00
2019-06-01T21:16:37.558Z,25.02
2019-06-01T21:19:05.318Z,25.00
2019-06-01T21:21:33.113Z,24.99
2019-06-01T21:24:00.905Z,24.86
2019-06-01T21:26:28.692Z,24.82
2019-06-01T21:28:56.495Z,24.68
2019-06-01T21:31:25.485Z,24.69
2019-06-01T21:33:53.367Z,24.73
2019-06-01T21:36:21.536Z,24.84
2019-06-01T21:38:49.409Z,24.83
2019-06-01T21:41:17.516Z,24.67
2019-06-01T21:43:45.452Z,24.60
2019-06-01T21:46:13.227Z,24.56
2019-06-01T21:48:41.039Z,24.50
2019-06-01T21:51:08.859Z,24.54
2019-06-01T21:53:36.686Z,24.47
2019-06-01T21:56:04.542Z,24.47
2019-06-01T21:58:32.318Z,24.52
2019-06-01T22:01:00.112Z,24.45
2019-06-01T22:03:27.882Z,24.35
2019-06-01T22:05:55.648Z,24.25
2019-06-01T22:08:23.426Z,24.18
2019-06-01T22:10:51.225Z,24.09
2019-06-01T22:13:22.307Z,24.07
2019-06-01T22:15:48.683Z,23.58
2019-06-01T22:18:17.602Z,23.68
2019-06-01T22:20:45.525Z,23.39
2019-06-01T22:23:13.291Z,23.34
2019-06-01T22:25:41.108Z,23.37
2019-06-01T22:28:08.816Z,23.55
2019-06-01T22:30:36.623Z,23.50
2019-06-01T22:33:04.434Z,23.59
2019-06-01T22:35:32.369Z,23.44
2019-06-01T22:38:00.152Z,23.21
2019-06-01T22:40:29.377Z,22.97
2019-06-01T22:42:57.291Z,23.04
2019-06-01T22:45:25.070Z,23.01
2019-06-01T22:47:52.844Z,22.99
2019-06-01T22:50:20.847Z,22.86
2019-06-01T22:52:48.703Z,22.61
2019-06-01T22:55:16.485Z,22.61
2019-06-01T22:57:44.232Z,22.55
2019-06-01T23:00:12.439Z,22.45
2019-06-01T23:02:40.165Z,22.31
2019-06-01T23:05:08.576Z,22.31
2019-06-01T23:07:36.289Z,22.18
2019-06-01T23:10:04.404Z,22.33
2019-06-01T23:12:32.162Z,22.15
2019-06-01T23:14:59.933Z,22.35
2019-06-01T23:17:28.014Z,22.47
2019-06-01T23:19:55.974Z,22.49
2019-06-01T23:22:23.985Z,22.37
2019-06-01T23:24:51.786Z,22.44
2019-06-01T23:27:19.539Z,22.35
2019-06-01T23:29:47.395Z,22.31
2019-06-01T23:32:15.146Z,22.38
2019-06-01T23:34:44.306Z,22.18
2019-06-01T23:37:12.070Z,22.18
2019-06-01T23:39:40.009Z,22.23
2019-06-01T23:42:07.891Z,22.21
2019-06-01T23:44:35.625Z,22.06
2019-06-01T23:47:03.394Z,21.97
2019-06-01T23:49:31.397Z,21.75
2019-06-01T23:51:59.269Z,21.82
2019-06-01T23:54:27.653Z,21.92
2019-06-01T23:56:55.587Z,22.02
2019-06-01T23:59:24.045Z,22.07
